Time,TemperatureF,DewpointF,PressureIn,WindDirection,WindDirectionDegrees,WindSpeedMPH,WindSpeedGustMPH,Humidity,HourlyPrecipIn,Conditions,Clouds,dailyrainin,SoftwareType,DateUTC
2013-02-09 00:02:00,11.0,5.0,30.32,NNW,338,0.0,0.0,77,0.00,,,0.08,,2013-02-09 05:02:00,
2013-02-09 00:12:00,11.0,5.0,30.32,NNW,338,0.0,0.0,77,0.00,,,0.08,,2013-02-09 05:12:00,
2013-02-09 00:22:00,11.0,5.0,30.33,NNW,338,0.0,0.0,77,0.00,,,0.08,,2013-02-09 05:22:00,
2013-02-09 00:32:00,10.0,5.0,30.33,NNW,338,0.0,0.0,78,0.00,,,0.08,,2013-02-09 05:32:00,
2013-02-09 00:42:00,10.0,5.0,30.33,NNW,338,0.0,0.0,78,0.00,,,0.08,,2013-02-09 05:42:00,
2013-02-09 00:52:00,10.0,5.0,30.33,NW,315,0.0,0.0,78,0.00,,,0.08,,2013-02-09 05:52:00,
2013-02-09 01:01:00,10.0,5.0,30.33,NNW,338,0.0,0.0,78,0.00,,,0.08,,2013-02-09 06:01:00,
2013-02-09 01:11:00,10.0,5.0,30.33,NNW,338,0.0,0.0,78,0.00,,,0.08,,2013-02-09 06:11:00,
2013-02-09 01:21:00,10.0,5.0,30.34,NNW,338,0.0,0.0,79,0.00,,,0.08,,2013-02-09 06:21:00,
2013-02-09 01:32:00,9.0,4.0,30.34,NNW,338,0.0,0.0,79,0.00,,,0.08,,2013-02-09 06:32:00,
2013-02-09 01:42:00,9.0,4.0,30.34,NNW,338,0.0,0.0,79,0.00,,,0.08,,2013-02-09 06:42:00,
2013-02-09 01:52:00,9.0,4.0,30.35,NNW,338,0.0,0.0,79,0.00,,,0.08,,2013-02-09 06:52:00,
2013-02-09 02:01:00,8.0,3.0,30.35,NNW,338,0.0,0.0,78,0.00,,,0.08,,2013-02-09 07:01:00,
2013-02-09 02:11:00,8.0,3.0,30.35,NNW,338,0.0,0.0,78,0.00,,,0.08,,2013-02-09 07:11:00,
2013-02-09 02:21:00,8.0,3.0,30.35,NNW,338,0.0,0.0,79,0.00,,,0.08,,2013-02-09 07:21:00,
2013-02-09 02:31:00,8.0,3.0,30.36,NNW,338,0.0,0.0,79,0.00,,,0.08,,2013-02-09 07:31:00,
2013-02-09 02:42:00,8.0,3.0,30.36,NNW,338,0.0,0.0,79,0.00,,,0.08,,2013-02-09 07:42:00,
2013-02-09 02:52:00,8.0,3.0,30.36,NNW,338,0.0,0.0,79,0.00,,,0.08,,2013-02-09 07:52:00,
2013-02-09 03:01:00,8.0,3.0,30.36,NNW,338,0.0,0.0,79,0.00,,,0.08,,2013-02-09 08:01:00,
2013-02-09 03:11:00,8.0,3.0,30.36,NNW,338,0.0,0.0,79,0.00,,,0.08,,2013-02-09 08:11:00,
2013-02-09 03:21:00,7.0,2.0,30.36,NNW,338,0.0,0.0,79,0.00,,,0.08,,2013-02-09 08:21:00,
2013-02-09 03:31:00,7.0,2.0,30.36,NNW,338,0.0,0.0,79,0.00,,,0.08,,2013-02-09 08:31:00,
2013-02-09 03:42:00,7.0,2.0,30.36,NNW,338,0.0,0.0,79,0.00,,,0.08,,2013-02-09 08:42:00,
2013-02-09 03:52:00,6.0,1.0,30.36,NNW,338,0.0,0.0,80,0.00,,,0.08,,2013-02-09 08:52:00,
2013-02-09 04:03:00,6.0,1.0,30.36,NNW,338,0.0,0.0,79,0.00,,,0.08,,2013-02-09 09:03:00,
2013-02-09 04:11:00,6.0,1.0,30.36,NNW,338,0.0,0.0,79,0.00,,,0.08,,2013-02-09 09:11:00,
2013-02-09 04:21:00,6.0,1.0,30.35,NNW,338,0.0,0.0,79,0.00,,,0.08,,2013-02-09 09:21:00,
2013-02-09 04:32:00,5.0,0.0,30.36,NNW,338,0.0,0.0,79,0.00,,,0.08,,2013-02-09 09:32:00,
2013-02-09 04:42:00,5.0,0.0,30.36,NNW,338,0.0,0.0,79,0.00,,,0.08,,2013-02-09 09:42:00,
2013-02-09 04:52:00,5.0,0.0,30.37,NNW,338,0.0,0.0,79,0.00,,,0.08,,2013-02-09 09:52:00,
2013-02-09 05:01:00,4.0,-1.0,30.37,NNW,338,0.0,0.0,79,0.00,,,0.08,,2013-02-09 10:01:00,
2013-02-09 05:11:00,4.0,-1.0,30.37,NNW,338,0.0,0.0,79,0.00,,,0.08,,2013-02-09 10:11:00,
2013-02-09 05:21:00,4.0,-1.0,30.37,NNW,338,0.0,0.0,79,0.00,,,0.08,,2013-02-09 10:21:00,
2013-02-09 05:32:00,4.0,-1.0,30.38,NNW,338,0.0,0.0,79,0.00,,,0.08,,2013-02-09 10:32:00,
2013-02-09 05:42:00,4.0,-1.0,30.38,NNW,338,0.0,0.0,79,0.00,,,0.08,,2013-02-09 10:42:00,
2013-02-09 05:52:00,4.0,-1.0,30.38,NNW,338,0.0,0.0,80,0.00,,,0.08,,2013-02-09 10:52:00,
2013-02-09 06:01:00,4.0,-1.0,30.38,NNW,338,0.0,0.0,80,0.00,,,0.08,,2013-02-09 11:01:00,
2013-02-09 06:11:00,4.0,-1.0,30.38,NNW,338,0.0,0.0,80,0.00,,,0.08,,2013-02-09 11:11:00,
2013-02-09 06:22:00,3.0,-2.0,30.38,NNW,338,0.0,0.0,79,0.00,,,0.08,,2013-02-09 11:22:00,
2013-02-09 06:32:00,3.0,-2.0,30.38,NNW,338,0.0,0.0,79,0.00,,,0.08,,2013-02-09 11:32:00,
2013-02-09 06:41:00,3.0,-2.0,30.38,NNW,338,0.0,0.0,79,0.00,,,0.08,,2013-02-09 11:41:00,
2013-02-09 06:52:00,2.0,-3.0,30.38,NNW,338,0.0,0.0,80,0.00,,,0.08,,2013-02-09 11:52:00,
2013-02-09 07:02:00,2.0,-3.0,30.38,NNW,338,0.0,0.0,80,0.00,,,0.08,,2013-02-09 12:02:00,
2013-02-09 07:11:00,2.0,-3.0,30.38,NNW,338,0.0,0.0,80,0.00,,,0.08,,2013-02-09 12:11:00,
2013-02-09 07:22:00,2.0,-3.0,30.40,NNW,338,0.0,0.0,80,0.00,,,0.08,,2013-02-09 12:22:00,
2013-02-09 07:32:00,2.0,-3.0,30.40,NNW,338,0.0,0.0,80,0.00,,,0.08,,2013-02-09 12:32:00,
2013-02-09 07:42:00,2.0,-3.0,30.40,NNW,338,0.0,0.0,80,0.00,,,0.08,,2013-02-09 12:42:00,
2013-02-09 07:52:00,1.0,-4.0,30.40,NNW,338,0.0,0.0,80,0.00,,,0.08,,2013-02-09 12:52:00,
2013-02-09 08:02:00,1.0,-4.0,30.40,NNW,338,0.0,0.0,80,0.00,,,0.08,,2013-02-09 13:02:00,
2013-02-09 08:11:00,1.0,-4.0,30.40,NNW,338,0.0,0.0,80,0.00,,,0.08,,2013-02-09 13:11:00,
2013-02-09 08:22:00,1.0,-4.0,30.40,NNW,338,0.0,0.0,80,0.00,,,0.08,,2013-02-09 13:22:00,
2013-02-09 08:32:00,1.0,-4.0,30.40,NNW,338,0.0,0.0,80,0.00,,,0.08,,2013-02-09 13:32:00,
2013-02-09 08:42:00,1.0,-4.0,30.40,NNW,338,0.0,0.0,80,0.00,,,0.08,,2013-02-09 13:42:00,
2013-02-09 08:52:00,2.0,-3.0,30.41,NNW,338,0.0,0.0,80,0.00,,,0.08,,2013-02-09 13:52:00,
2013-02-09 09:01:00,3.0,-2.0,30.40,NNW,338,0.0,0.0,80,0.00,,,0.08,,2013-02-09 14:01:00,
2013-02-09 09:11:00,3.0,-2.0,30.40,NNW,338,0.0,0.0,80,0.00,,,0.08,,2013-02-09 14:11:00,
2013-02-09 09:21:00,6.0,1.0,30.40,West,270,0.0,0.0,81,0.00,,,0.08,,2013-02-09 14:21:00,
2013-02-09 09:32:00,7.0,2.0,30.40,WSW,248,0.0,0.0,81,0.00,,,0.08,,2013-02-09 14:32:00,
2013-02-09 09:52:00,9.0,4.0,30.41,WSW,248,0.0,0.0,81,0.00,,,0.08,,2013-02-09 14:52:00,
2013-02-09 10:02:00,10.0,5.0,30.41,WSW,248,0.0,0.0,81,0.00,,,0.08,,2013-02-09 15:02:00,
2013-02-09 10:21:00,12.0,8.0,30.41,SSW,203,0.0,0.0,82,0.00,,,0.08,,2013-02-09 15:21:00,
2013-02-09 10:32:00,14.0,10.0,30.41,SW,225,0.0,0.0,82,0.00,,,0.08,,2013-02-09 15:32:00,
2013-02-09 10:52:00,16.0,11.0,30.41,South,180,0.0,0.0,82,0.00,,,0.08,,2013-02-09 15:52:00,
2013-02-09 11:01:00,19.0,14.0,30.40,South,180,0.0,0.0,82,0.00,,,0.08,,2013-02-09 16:01:00,
2013-02-09 11:22:00,21.0,16.0,30.39,South,180,0.0,0.0,80,0.00,,,0.08,,2013-02-09 16:22:00,
2013-02-09 11:32:00,23.0,17.0,30.39,SSW,203,0.0,0.0,79,0.00,,,0.08,,2013-02-09 16:32:00,
2013-02-09 11:52:00,25.0,19.0,30.39,SSW,203,0.0,0.0,76,0.00,,,0.08,,2013-02-09 16:52:00,
2013-02-09 12:01:00,26.0,19.0,30.40,SSE,158,0.0,0.0,75,0.00,,,0.08,,2013-02-09 17:01:00,
2013-02-09 12:21:00,28.0,20.0,30.40,WSW,248,0.0,0.0,72,0.00,,,0.08,,2013-02-09 17:21:00,
2013-02-09 12:32:00,28.0,20.0,30.39,SW,225,0.0,0.0,71,0.00,,,0.08,,2013-02-09 17:32:00,
2013-02-09 12:52:00,30.0,21.0,30.38,WSW,248,0.0,0.0,70,0.00,,,0.06,,2013-02-09 17:52:00,
2013-02-09 13:02:00,31.0,22.0,30.38,South,180,0.0,0.0,69,0.00,,,0.04,,2013-02-09 18:02:00,
2013-02-09 13:23:00,32.0,22.0,30.37,SSE,158,0.0,0.0,67,0.00,,,0.04,,2013-02-09 18:23:00,
2013-02-09 13:32:00,33.0,23.0,30.36,South,180,0.0,1.0,65,0.00,,,0.04,,2013-02-09 18:32:00,
2013-02-09 13:52:00,33.0,22.0,30.35,South,180,0.0,0.0,63,0.00,,,0.04,,2013-02-09 18:52:00,
2013-02-09 14:01:00,32.0,21.0,30.34,SSE,158,1.0,6.0,63,0.00,,,0.02,,2013-02-09 19:01:00,
2013-02-09 14:22:00,32.0,20.0,30.34,South,180,0.0,0.0,62,0.00,,,0.00,,2013-02-09 19:22:00,
2013-02-09 14:32:00,32.0,20.0,30.33,South,180,2.0,5.0,62,0.00,,,0.00,,2013-02-09 19:32:00,
2013-02-09 14:52:00,33.0,21.0,30.33,South,180,0.0,0.0,61,0.00,,,0.00,,2013-02-09 19:52:00,
2013-02-09 15:01:00,33.0,20.0,30.32,SSW,203,3.0,6.0,59,0.00,,,0.00,,2013-02-09 20:01:00,
2013-02-09 15:21:00,32.0,20.0,30.32,South,180,0.0,0.0,60,0.00,,,0.00,,2013-02-09 20:21:00,
2013-02-09 15:32:00,32.0,20.0,30.31,South,180,0.0,1.0,60,0.00,,,0.00,,2013-02-09 20:32:00,
2013-02-09 15:42:00,32.0,20.0,30.31,South,180,0.0,1.0,60,0.00,,,0.00,,2013-02-09 20:42:00,
2013-02-09 15:52:00,30.0,18.0,30.30,SSW,203,2.0,3.0,60,0.00,,,0.00,,2013-02-09 20:52:00,
2013-02-09 16:02:00,30.0,18.0,30.29,SSE,158,1.0,5.0,61,0.00,,,0.00,,2013-02-09 21:02:00,
2013-02-09 16:12:00,30.0,18.0,30.29,SSE,158,1.0,5.0,61,0.00,,,0.00,,2013-02-09 21:12:00,
2013-02-09 16:21:00,31.0,19.0,30.29,SSE,158,0.0,0.0,61,0.00,,,0.00,,2013-02-09 21:21:00,
2013-02-09 16:32:00,32.0,20.0,30.29,South,180,0.0,0.0,61,0.00,,,0.00,,2013-02-09 21:32:00,
2013-02-09 16:42:00,32.0,20.0,30.29,South,180,0.0,0.0,61,0.00,,,0.00,,2013-02-09 21:42:00,
2013-02-09 16:52:00,32.0,20.0,30.29,SSE,158,0.0,0.0,60,0.00,,,0.00,,2013-02-09 21:52:00,
2013-02-09 17:01:00,31.0,19.0,30.29,SSW,203,0.0,0.0,60,0.00,,,0.00,,2013-02-09 22:01:00,
2013-02-09 17:11:00,31.0,19.0,30.29,SSW,203,0.0,0.0,60,0.00,,,0.00,,2013-02-09 22:11:00,
2013-02-09 17:21:00,29.0,17.0,30.29,SSW,203,0.0,0.0,61,0.00,,,0.00,,2013-02-09 22:21:00,
2013-02-09 17:32:00,29.0,18.0,30.29,SSW,203,0.0,0.0,62,0.00,,,0.00,,2013-02-09 22:32:00,
2013-02-09 17:42:00,29.0,18.0,30.29,SSW,203,0.0,0.0,62,0.00,,,0.00,,2013-02-09 22:42:00,
2013-02-09 17:52:00,28.0,17.0,30.28,SSW,203,0.0,0.0,62,0.00,,,0.00,,2013-02-09 22:52:00,
2013-02-09 18:02:00,27.0,16.0,30.28,SSW,203,0.0,0.0,63,0.00,,,0.00,,2013-02-09 23:02:00,
2013-02-09 18:11:00,27.0,16.0,30.28,SSW,203,0.0,0.0,63,0.00,,,0.00,,2013-02-09 23:11:00,
2013-02-09 18:21:00,26.0,16.0,30.28,SSW,203,0.0,0.0,64,0.00,,,0.00,,2013-02-09 23:21:00,
2013-02-09 18:32:00,25.0,15.0,30.28,SSW,203,0.0,0.0,64,0.00,,,0.00,,2013-02-09 23:32:00,
2013-02-09 18:42:00,25.0,15.0,30.28,SSW,203,0.0,0.0,64,0.00,,,0.00,,2013-02-09 23:42:00,
2013-02-09 18:52:00,24.0,14.0,30.28,SSW,203,0.0,0.0,66,0.00,,,0.00,,2013-02-09 23:52:00,
2013-02-09 19:02:00,23.0,14.0,30.28,SSW,203,0.0,0.0,67,0.00,,,0.00,,2013-02-10 00:02:00,
2013-02-09 19:12:00,23.0,14.0,30.28,SSW,203,0.0,0.0,67,0.00,,,0.00,,2013-02-10 00:12:00,
2013-02-09 19:22:00,22.0,13.0,30.28,East,90,0.0,0.0,68,0.00,,,0.00,,2013-02-10 00:22:00,
2013-02-09 19:32:00,22.0,13.0,30.28,East,90,0.0,0.0,69,0.00,,,0.00,,2013-02-10 00:32:00,
2013-02-09 19:42:00,22.0,13.0,30.28,East,90,0.0,0.0,69,0.00,,,0.00,,2013-02-10 00:42:00,
2013-02-09 19:52:00,21.0,13.0,30.27,East,90,0.0,0.0,70,0.00,,,0.00,,2013-02-10 00:52:00,
2013-02-09 20:01:00,20.0,12.0,30.27,East,90,0.0,0.0,70,0.00,,,0.00,,2013-02-10 01:01:00,
2013-02-09 20:12:00,20.0,12.0,30.27,East,90,0.0,0.0,70,0.00,,,0.00,,2013-02-10 01:12:00,
2013-02-09 20:21:00,20.0,12.0,30.26,East,90,0.0,0.0,71,0.00,,,0.00,,2013-02-10 01:21:00,
2013-02-09 20:32:00,19.0,11.0,30.25,East,90,0.0,0.0,71,0.00,,,0.00,,2013-02-10 01:32:00,
2013-02-09 20:42:00,19.0,11.0,30.25,East,90,0.0,0.0,71,0.00,,,0.00,,2013-02-10 01:42:00,
2013-02-09 20:52:00,18.0,11.0,30.25,ESE,113,0.0,0.0,72,0.00,,,0.00,,2013-02-10 01:52:00,
2013-02-09 21:01:00,18.0,11.0,30.25,SE,135,0.0,0.0,72,0.00,,,0.00,,2013-02-10 02:01:00,
2013-02-09 21:11:00,18.0,11.0,30.25,SE,135,0.0,0.0,72,0.00,,,0.00,,2013-02-10 02:11:00,
2013-02-09 21:22:00,19.0,12.0,30.24,South,180,0.0,0.0,73,0.00,,,0.00,,2013-02-10 02:22:00,
2013-02-09 21:32:00,20.0,13.0,30.24,SSE,158,0.0,0.0,73,0.00,,,0.00,,2013-02-10 02:32:00,
2013-02-09 21:42:00,20.0,13.0,30.24,SSE,158,0.0,0.0,73,0.00,,,0.00,,2013-02-10 02:42:00,
2013-02-09 21:52:00,20.0,13.0,30.24,South,180,0.0,0.0,73,0.00,,,0.00,,2013-02-10 02:52:00,
2013-02-09 22:02:00,21.0,14.0,30.24,SSE,158,0.0,0.0,73,0.00,,,0.00,,2013-02-10 03:02:00,
2013-02-09 22:11:00,21.0,14.0,30.24,SSE,158,0.0,0.0,73,0.00,,,0.00,,2013-02-10 03:11:00,
2013-02-09 22:21:00,22.0,14.0,30.24,South,180,0.0,0.0,72,0.00,,,0.00,,2013-02-10 03:21:00,
2013-02-09 22:32:00,22.0,14.0,30.23,SSE,158,0.0,0.0,72,0.00,,,0.00,,2013-02-10 03:32:00,
2013-02-09 22:42:00,22.0,14.0,30.23,SSE,158,0.0,0.0,72,0.00,,,0.00,,2013-02-10 03:42:00,
2013-02-09 22:52:00,22.0,14.0,30.23,South,180,0.0,0.0,72,0.00,,,0.00,,2013-02-10 03:52:00,
2013-02-09 23:01:00,22.0,14.0,30.23,SSE,158,0.0,0.0,72,0.00,,,0.00,,2013-02-10 04:01:00,
2013-02-09 23:11:00,22.0,14.0,30.23,SSE,158,0.0,0.0,72,0.00,,,0.00,,2013-02-10 04:11:00,
2013-02-09 23:22:00,21.0,14.0,30.23,SSE,158,0.0,0.0,73,0.00,,,0.00,,2013-02-10 04:22:00,
2013-02-09 23:32:00,21.0,14.0,30.22,SSE,158,0.0,0.0,73,0.00,,,0.00,,2013-02-10 04:32:00,
2013-02-09 23:42:00,21.0,14.0,30.22,SSE,158,0.0,0.0,73,0.00,,,0.00,,2013-02-10 04:42:00,
2013-02-09 23:52:00,20.0,13.0,30.22,SSE,158,0.0,0.0,73,0.00,,,0.00,,2013-02-10 04:52:00,